Atlantis — PCDT — position and weather

sailwx.info

Track history (hours):
 
Tides and Currents Weather Stations Pressure Air Temp Water Temp Dewpoint Dewpoint Depression Visibility Wind Speed Wind Dir Waves Ship Positions

Atlantis (Netherlands)

Ship's website: http://www.tallship-company.com/artemis/gb_atlantis.htm

Last reported at 2015-Jul-02 11:05 UTC. Time now 2015-Jul-03 10:42 UTC.
Position N 54°14' E 011°11'.

Length 40 m; draft 4.4 m.

Type: Sailing vessel. MMSI: 246253000.

Date/timePositionNaut miles runAvg speedWind from/ knotsBaromVisibWave heightAir tempDewpointWater temp
2015-Jul-02 11:05N 54°14' E 011°11'4 6.7
2015-Jul-02 10:32N 54°17' E 011°15'6 6.5
2015-Jul-02 09:33N 54°22' E 011°19'5 5.5
2015-Jul-02 08:33N 54°28' E 011°18'5 5.0
2015-Jul-02 07:33N 54°32' E 011°13'6 5.7
2015-Jul-02 06:31N 54°34' E 011°04'6 5.7
2015-Jul-02 05:33N 54°37' E 010°55'12 3.5
2015-Jul-02 02:12N 54°45' E 010°40'0 0.0
2015-Jul-02 01:33N 54°45' E 010°40'0 0.0
2015-Jul-02 00:33N 54°45' E 010°40'0 0.0
2015-Jul-01 23:03N 54°45' E 010°40'0 0.0
2015-Jul-01 21:04N 54°45' E 010°40'0 0.0
2015-Jul-01 20:33N 54°45' E 010°40'0 0.0
2015-Jul-01 19:32N 54°45' E 010°40'0 0.0
2015-Jul-01 18:12N 54°45' E 010°40'0 0.0
2015-Jul-01 17:33N 54°45' E 010°40'0 0.0
2015-Jul-01 15:22N 54°45' E 010°40'0 0.0
2015-Jul-01 14:28N 54°45' E 010°40'0 0.4
2015-Jul-01 13:26N 54°45' E 010°40'6 6.5
2015-Jul-01 12:28N 54°41' E 010°31'8 6.2
2015-Jul-01 11:10N 54°35' E 010°22'4 6.1
2015-Jul-01 10:33N 54°32' E 010°18'6 6.1
2015-Jul-01 09:33N 54°27' E 010°14'5 5.2
2015-Jul-01 08:33N 54°22' E 010°10'0 0.4
2015-Jul-01 07:33N 54°22' E 010°09'0 0.0
2015-Jul-01 06:33N 54°22' E 010°09'0 0.0
2015-Jul-01 05:33N 54°22' E 010°09'0 0.0
2015-Jul-01 04:33N 54°22' E 010°09'0 0.0
2015-Jul-01 03:33N 54°22' E 010°09'0 0.0
2015-Jul-01 02:33N 54°22' E 010°09'0 0.0
2015-Jul-01 01:33N 54°22' E 010°09'0 0.0
2015-Jul-01 00:33N 54°22' E 010°09'0 0.0
2015-Jun-30 23:33N 54°22' E 010°09'0 0.0
2015-Jun-30 22:33N 54°22' E 010°09'0 0.0
2015-Jun-30 21:33N 54°22' E 010°09'0 0.0
2015-Jun-30 20:33N 54°22' E 010°09'0 0.0
2015-Jun-30 19:33N 54°22' E 010°09'0 0.0
2015-Jun-30 18:33N 54°22' E 010°09'0 0.0
2015-Jun-30 17:33N 54°22' E 010°09'0 0.0
2015-Jun-30 16:33N 54°22' E 010°09'0 0.0
2015-Jun-30 15:33N 54°22' E 010°09'0 0.0
2015-Jun-30 14:33N 54°22' E 010°09'0 0.0
2015-Jun-30 13:33N 54°22' E 010°09'0 0.0
2015-Jun-30 12:33N 54°22' E 010°09'0 0.0
2015-Jun-30 11:33N 54°22' E 010°09'0 0.0
2015-Jun-30 10:33N 54°22' E 010°09'0 0.0
2015-Jun-30 09:33N 54°22' E 010°09'0 0.0
2015-Jun-30 08:33N 54°22' E 010°09'0 0.0
2015-Jun-30 07:33N 54°22' E 010°09'0 0.0
2015-Jun-30 06:33N 54°22' E 010°09'0 0.0
2015-Jun-30 05:33N 54°22' E 010°09'0 0.0
2015-Jun-30 04:33N 54°22' E 010°09'0 0.0
2015-Jun-30 03:33N 54°22' E 010°09'0 0.0
2015-Jun-30 02:33N 54°22' E 010°09'0 0.0
2015-Jun-30 01:33N 54°22' E 010°09'0 0.0
2015-Jun-30 00:33N 54°22' E 010°09'0 0.0
2015-Jun-29 23:33N 54°22' E 010°09'0 0.0
2015-Jun-29 22:33N 54°22' E 010°09'0 0.0
2015-Jun-29 21:33N 54°22' E 010°09'0 0.0
2015-Jun-29 20:33N 54°22' E 010°09'0 0.0
2015-Jun-29 19:33N 54°22' E 010°09'0 0.0
2015-Jun-29 18:33N 54°22' E 010°09'0 0.0
2015-Jun-29 17:33N 54°22' E 010°09'0 0.0
2015-Jun-29 16:33N 54°22' E 010°09'0 0.0
2015-Jun-29 15:33N 54°22' E 010°09'0 0.0
2015-Jun-29 14:33N 54°22' E 010°09'0 0.0
2015-Jun-29 13:33N 54°22' E 010°09'0 0.0
2015-Jun-29 12:33N 54°22' E 010°09'0 0.0
2015-Jun-29 11:33N 54°22' E 010°09'0 0.0
2015-Jun-29 10:33N 54°22' E 010°09'0 0.0
2015-Jun-29 09:33N 54°22' E 010°09'0 0.0
2015-Jun-29 08:33N 54°22' E 010°09'0 0.0
2015-Jun-29 07:33N 54°22' E 010°09'0 0.0
2015-Jun-29 06:33N 54°22' E 010°09'0 0.0
2015-Jun-29 05:33N 54°22' E 010°09'0 0.0
2015-Jun-29 04:33N 54°22' E 010°09'0 0.0
2015-Jun-29 03:33N 54°22' E 010°09'0 0.0
2015-Jun-29 02:33N 54°22' E 010°09'0 0.0
2015-Jun-29 01:33N 54°22' E 010°09'0 0.0
2015-Jun-29 00:33N 54°22' E 010°09'0 0.0
2015-Jun-28 23:33N 54°22' E 010°09'0 0.0
2015-Jun-28 22:33N 54°22' E 010°09'0 0.0
2015-Jun-28 21:33N 54°22' E 010°09'0 0.0
2015-Jun-28 20:33N 54°22' E 010°09'0 0.0
2015-Jun-28 19:33N 54°22' E 010°09'2 0.5
2015-Jun-28 14:33N 54°20' E 010°09'1 1.2
2015-Jun-28 13:33N 54°19' E 010°08'0 0.0
2015-Jun-28 12:33N 54°19' E 010°08'0 0.0
2015-Jun-28 11:33N 54°19' E 010°08'0 0.0
2015-Jun-28 10:33N 54°19' E 010°08'0 0.0
2015-Jun-28 09:33N 54°19' E 010°08'0 0.0
2015-Jun-28 08:33N 54°19' E 010°08'0 0.0
2015-Jun-28 07:33N 54°19' E 010°08'0 0.0
2015-Jun-28 06:33N 54°19' E 010°08'0 0.0
2015-Jun-28 05:33N 54°19' E 010°08'0 0.0
2015-Jun-28 04:33N 54°19' E 010°08'0 0.0
2015-Jun-28 03:33N 54°19' E 010°08'0 0.0
2015-Jun-28 02:33N 54°19' E 010°08'0 0.0
2015-Jun-28 01:33N 54°19' E 010°08'0 0.0
2015-Jun-28 00:33N 54°19' E 010°08'0 0.0
2015-Jun-27 23:33N 54°19' E 010°08'0 0.0
2015-Jun-27 22:33N 54°19' E 010°08'0 0.0
2015-Jun-27 21:33N 54°19' E 010°08'2 2.0
2015-Jun-27 20:33N 54°21' E 010°10'6 5.9
2015-Jun-27 19:33N 54°26' E 010°14'3 2.7
2015-Jun-27 18:33N 54°24' E 010°12'4 4.4
2015-Jun-27 17:33N 54°20' E 010°09'1 0.9
2015-Jun-27 16:33N 54°19' E 010°08'0 0.0
2015-Jun-27 15:33N 54°19' E 010°08'1 1.5
2015-Jun-27 14:33N 54°20' E 010°10'5 4.9
2015-Jun-27 13:33N 54°25' E 010°12'4 4.0
2015-Jun-27 12:33N 54°29' E 010°14'1 0.9
2015-Jun-27 11:33N 54°28' E 010°15'3 3.2
2015-Jun-27 10:33N 54°25' E 010°13'4 3.7
2015-Jun-27 09:33N 54°22' E 010°10'2 2.2
2015-Jun-27 08:33N 54°19' E 010°09'1 0.7
2015-Jun-27 07:33N 54°19' E 010°08'0 0.0
2015-Jun-27 06:33N 54°19' E 010°08'0 0.0
2015-Jun-27 05:33N 54°19' E 010°08'0 0.0
2015-Jun-27 04:33N 54°19' E 010°08'0 0.0
2015-Jun-27 03:33N 54°19' E 010°08'0 0.0
2015-Jun-27 02:33N 54°19' E 010°08'0 0.0
2015-Jun-27 01:33N 54°19' E 010°08'0 0.0
2015-Jun-27 00:33N 54°19' E 010°08'0 0.0
2015-Jun-26 23:33N 54°19' E 010°08'0 0.0
2015-Jun-26 22:33N 54°19' E 010°08'0 0.0
2015-Jun-26 21:33N 54°19' E 010°08'0 0.0
2015-Jun-26 20:33N 54°19' E 010°08'0 0.0
2015-Jun-26 19:33N 54°19' E 010°08'0 0.0
2015-Jun-26 18:33N 54°19' E 010°08'0 0.0
2015-Jun-26 17:33N 54°19' E 010°08'0 0.0
2015-Jun-26 16:33N 54°19' E 010°08'0 0.0
2015-Jun-26 15:33N 54°19' E 010°08'0 0.0
2015-Jun-26 14:33N 54°19' E 010°08'0 0.0
2015-Jun-26 13:33N 54°19' E 010°08'0 0.0
2015-Jun-26 12:33N 54°19' E 010°08'0 0.0
2015-Jun-26 11:33N 54°19' E 010°08'0 0.0
2015-Jun-26 10:33N 54°19' E 010°08'0 0.0
2015-Jun-26 09:33N 54°19' E 010°08'0 0.0
2015-Jun-26 08:33N 54°19' E 010°08'0 0.0
2015-Jun-26 07:33N 54°19' E 010°08'0 0.0
2015-Jun-26 06:33N 54°19' E 010°08'0 0.0
2015-Jun-26 05:33N 54°19' E 010°08'0 0.0
2015-Jun-26 04:33N 54°19' E 010°08'0 0.0
2015-Jun-26 03:33N 54°19' E 010°08'0 0.0
2015-Jun-26 02:33N 54°19' E 010°08'0 0.0
2015-Jun-26 01:33N 54°19' E 010°08'0 0.0
2015-Jun-26 00:33N 54°19' E 010°08'0 0.0
2015-Jun-25 23:33N 54°19' E 010°08'0 0.0
2015-Jun-25 22:33N 54°19' E 010°08'0 0.0
2015-Jun-25 21:33N 54°19' E 010°08'0 0.0
2015-Jun-25 20:33N 54°19' E 010°08'0 0.0
2015-Jun-25 19:33N 54°19' E 010°08'0 0.0
2015-Jun-25 18:33N 54°19' E 010°08'0 0.2
2015-Jun-25 17:33N 54°19' E 010°08'3 3.0
2015-Jun-25 16:33N 54°22' E 010°10'2 2.1
2015-Jun-25 15:33N 54°24' E 010°12'2 1.8
2015-Jun-25 14:33N 54°25' E 010°13'1 0.9
2015-Jun-25 13:33N 54°26' E 010°14'3 3.0
2015-Jun-25 12:33N 54°23' E 010°12'3 3.2
2015-Jun-25 11:33N 54°20' E 010°10'2 1.6
2015-Jun-25 10:31N 54°19' E 010°08'0 0.0
2015-Jun-25 09:31N 54°19' E 010°08'0 0.0
2015-Jun-25 08:31N 54°19' E 010°08'0 0.0
2015-Jun-25 07:31N 54°19' E 010°08'0 0.0
2015-Jun-25 06:31N 54°19' E 010°08'0 0.0
2015-Jun-25 05:31N 54°19' E 010°08'0 0.0
2015-Jun-25 04:31N 54°19' E 010°08'0 0.0
2015-Jun-25 03:31N 54°19' E 010°08'0 0.0
2015-Jun-25 02:31N 54°19' E 010°08'0 0.0
2015-Jun-25 01:31N 54°19' E 010°08'0 0.0
2015-Jun-25 00:31N 54°19' E 010°08'0 0.0
2015-Jun-24 23:31N 54°19' E 010°08'0 0.0
2015-Jun-24 22:31N 54°19' E 010°08'0 0.0
2015-Jun-24 21:31N 54°19' E 010°08'0 0.0
2015-Jun-24 20:31N 54°19' E 010°08'0 0.0
2015-Jun-24 19:31N 54°19' E 010°08'0 0.0
2015-Jun-24 18:31N 54°19' E 010°08'0 0.0
2015-Jun-24 17:31N 54°19' E 010°08'0 0.0
2015-Jun-24 16:31N 54°19' E 010°08'0 0.0
2015-Jun-24 15:31N 54°19' E 010°08'1 1.3
2015-Jun-24 14:33N 54°20' E 010°09'4 4.5
2015-Jun-24 13:33N 54°24' E 010°12'1 1.1
2015-Jun-24 12:33N 54°25' E 010°12'0 0.0
2015-Jun-24 11:33N 54°25' E 010°12'0 0.0
2015-Jun-24 10:33N 54°25' E 010°12'2 2.1
2015-Jun-24 09:33N 54°23' E 010°12'4 3.6
2015-Jun-24 08:33N 54°20' E 010°10'1 1.3
2015-Jun-24 07:33N 54°19' E 010°08'0 0.0
2015-Jun-24 06:33N 54°19' E 010°08'0 0.0
2015-Jun-24 05:33N 54°19' E 010°08'0 0.0
2015-Jun-24 04:33N 54°19' E 010°08'0 0.0
2015-Jun-24 03:33N 54°19' E 010°08'0 0.0
2015-Jun-24 02:33N 54°19' E 010°08'0 0.0
2015-Jun-24 01:33N 54°19' E 010°08'0 0.0
2015-Jun-24 00:33N 54°19' E 010°08'0 0.0
2015-Jun-23 23:33N 54°19' E 010°08'0 0.0
2015-Jun-23 22:33N 54°19' E 010°08'0 0.0
2015-Jun-23 21:33N 54°19' E 010°08'0 0.0
2015-Jun-23 20:33N 54°19' E 010°08'0 0.0
2015-Jun-23 19:33N 54°19' E 010°08'0 0.0
2015-Jun-23 19:06N 54°19' E 010°08'0 0.0
2015-Jun-22 19:32N 54°19' E 010°08'0 0.0
2015-Jun-22 18:32N 54°19' E 010°08'0 0.0
2015-Jun-22 17:32N 54°19' E 010°08'0 0.0
2015-Jun-22 16:32N 54°19' E 010°08'0 0.0
2015-Jun-22 15:32N 54°19' E 010°08'0 0.0
2015-Jun-22 14:32N 54°19' E 010°08'0 0.0
2015-Jun-22 13:32N 54°19' E 010°08'0 0.0
2015-Jun-22 12:26N 54°19' E 010°08'0 0.0
2015-Jun-22 11:32N 54°19' E 010°08'  
Track history (hours):
 
Tides and Currents Weather Stations Pressure Air Temp Water Temp Dewpoint Dewpoint Depression Visibility Wind Speed Wind Dir Waves Ship Positions

Atlantis (Netherlands)

Ship's website: http://www.tallship-company.com/artemis/gb_atlantis.htm

Last reported at 2015-Jul-02 11:05 UTC. Time now 2015-Jul-03 10:42 UTC.
Position N 54°14' E 011°11'.

Length 40 m; draft 4.4 m.

Type: Sailing vessel. MMSI: 246253000.

Date/timePositionNaut miles runAvg speedWind from/ knotsBaromVisibWave heightAir tempDewpointWater temp
2015-Jul-02 11:05N 54°14' E 011°11'4 6.7
2015-Jul-02 10:32N 54°17' E 011°15'6 6.5
2015-Jul-02 09:33N 54°22' E 011°19'5 5.5
2015-Jul-02 08:33N 54°28' E 011°18'5 5.0
2015-Jul-02 07:33N 54°32' E 011°13'6 5.7
2015-Jul-02 06:31N 54°34' E 011°04'6 5.7
2015-Jul-02 05:33N 54°37' E 010°55'12 3.5
2015-Jul-02 02:12N 54°45' E 010°40'0 0.0
2015-Jul-02 01:33N 54°45' E 010°40'0 0.0
2015-Jul-02 00:33N 54°45' E 010°40'0 0.0
2015-Jul-01 23:03N 54°45' E 010°40'0 0.0
2015-Jul-01 21:04N 54°45' E 010°40'0 0.0
2015-Jul-01 20:33N 54°45' E 010°40'0 0.0
2015-Jul-01 19:32N 54°45' E 010°40'0 0.0
2015-Jul-01 18:12N 54°45' E 010°40'0 0.0
2015-Jul-01 17:33N 54°45' E 010°40'0 0.0
2015-Jul-01 15:22N 54°45' E 010°40'0 0.0
2015-Jul-01 14:28N 54°45' E 010°40'0 0.4
2015-Jul-01 13:26N 54°45' E 010°40'6 6.5
2015-Jul-01 12:28N 54°41' E 010°31'8 6.2
2015-Jul-01 11:10N 54°35' E 010°22'4 6.1
2015-Jul-01 10:33N 54°32' E 010°18'6 6.1
2015-Jul-01 09:33N 54°27' E 010°14'5 5.2
2015-Jul-01 08:33N 54°22' E 010°10'0 0.4
2015-Jul-01 07:33N 54°22' E 010°09'0 0.0
2015-Jul-01 06:33N 54°22' E 010°09'0 0.0
2015-Jul-01 05:33N 54°22' E 010°09'0 0.0
2015-Jul-01 04:33N 54°22' E 010°09'0 0.0
2015-Jul-01 03:33N 54°22' E 010°09'0 0.0
2015-Jul-01 02:33N 54°22' E 010°09'0 0.0
2015-Jul-01 01:33N 54°22' E 010°09'0 0.0
2015-Jul-01 00:33N 54°22' E 010°09'0 0.0
2015-Jun-30 23:33N 54°22' E 010°09'0 0.0
2015-Jun-30 22:33N 54°22' E 010°09'0 0.0
2015-Jun-30 21:33N 54°22' E 010°09'0 0.0
2015-Jun-30 20:33N 54°22' E 010°09'0 0.0
2015-Jun-30 19:33N 54°22' E 010°09'0 0.0
2015-Jun-30 18:33N 54°22' E 010°09'0 0.0
2015-Jun-30 17:33N 54°22' E 010°09'0 0.0
2015-Jun-30 16:33N 54°22' E 010°09'0 0.0
2015-Jun-30 15:33N 54°22' E 010°09'0 0.0
2015-Jun-30 14:33N 54°22' E 010°09'0 0.0
2015-Jun-30 13:33N 54°22' E 010°09'0 0.0
2015-Jun-30 12:33N 54°22' E 010°09'0 0.0
2015-Jun-30 11:33N 54°22' E 010°09'0 0.0
2015-Jun-30 10:33N 54°22' E 010°09'0 0.0
2015-Jun-30 09:33N 54°22' E 010°09'0 0.0
2015-Jun-30 08:33N 54°22' E 010°09'0 0.0
2015-Jun-30 07:33N 54°22' E 010°09'0 0.0
2015-Jun-30 06:33N 54°22' E 010°09'0 0.0
2015-Jun-30 05:33N 54°22' E 010°09'0 0.0
2015-Jun-30 04:33N 54°22' E 010°09'0 0.0
2015-Jun-30 03:33N 54°22' E 010°09'0 0.0
2015-Jun-30 02:33N 54°22' E 010°09'0 0.0
2015-Jun-30 01:33N 54°22' E 010°09'0 0.0
2015-Jun-30 00:33N 54°22' E 010°09'0 0.0
2015-Jun-29 23:33N 54°22' E 010°09'0 0.0
2015-Jun-29 22:33N 54°22' E 010°09'0 0.0
2015-Jun-29 21:33N 54°22' E 010°09'0 0.0
2015-Jun-29 20:33N 54°22' E 010°09'0 0.0
2015-Jun-29 19:33N 54°22' E 010°09'0 0.0
2015-Jun-29 18:33N 54°22' E 010°09'0 0.0
2015-Jun-29 17:33N 54°22' E 010°09'0 0.0
2015-Jun-29 16:33N 54°22' E 010°09'0 0.0
2015-Jun-29 15:33N 54°22' E 010°09'0 0.0
2015-Jun-29 14:33N 54°22' E 010°09'0 0.0
2015-Jun-29 13:33N 54°22' E 010°09'0 0.0
2015-Jun-29 12:33N 54°22' E 010°09'0 0.0
2015-Jun-29 11:33N 54°22' E 010°09'0 0.0
2015-Jun-29 10:33N 54°22' E 010°09'0 0.0
2015-Jun-29 09:33N 54°22' E 010°09'0 0.0
2015-Jun-29 08:33N 54°22' E 010°09'0 0.0
2015-Jun-29 07:33N 54°22' E 010°09'0 0.0
2015-Jun-29 06:33N 54°22' E 010°09'0 0.0
2015-Jun-29 05:33N 54°22' E 010°09'0 0.0
2015-Jun-29 04:33N 54°22' E 010°09'0 0.0
2015-Jun-29 03:33N 54°22' E 010°09'0 0.0
2015-Jun-29 02:33N 54°22' E 010°09'0 0.0
2015-Jun-29 01:33N 54°22' E 010°09'0 0.0
2015-Jun-29 00:33N 54°22' E 010°09'0 0.0
2015-Jun-28 23:33N 54°22' E 010°09'0 0.0
2015-Jun-28 22:33N 54°22' E 010°09'0 0.0
2015-Jun-28 21:33N 54°22' E 010°09'0 0.0
2015-Jun-28 20:33N 54°22' E 010°09'0 0.0
2015-Jun-28 19:33N 54°22' E 010°09'2 0.5
2015-Jun-28 14:33N 54°20' E 010°09'1 1.2
2015-Jun-28 13:33N 54°19' E 010°08'0 0.0
2015-Jun-28 12:33N 54°19' E 010°08'0 0.0
2015-Jun-28 11:33N 54°19' E 010°08'0 0.0
2015-Jun-28 10:33N 54°19' E 010°08'0 0.0
2015-Jun-28 09:33N 54°19' E 010°08'0 0.0
2015-Jun-28 08:33N 54°19' E 010°08'0 0.0
2015-Jun-28 07:33N 54°19' E 010°08'0 0.0
2015-Jun-28 06:33N 54°19' E 010°08'0 0.0
2015-Jun-28 05:33N 54°19' E 010°08'0 0.0
2015-Jun-28 04:33N 54°19' E 010°08'0 0.0
2015-Jun-28 03:33N 54°19' E 010°08'0 0.0
2015-Jun-28 02:33N 54°19' E 010°08'0 0.0
2015-Jun-28 01:33N 54°19' E 010°08'0 0.0
2015-Jun-28 00:33N 54°19' E 010°08'0 0.0
2015-Jun-27 23:33N 54°19' E 010°08'0 0.0
2015-Jun-27 22:33N 54°19' E 010°08'0 0.0
2015-Jun-27 21:33N 54°19' E 010°08'2 2.0
2015-Jun-27 20:33N 54°21' E 010°10'6 5.9
2015-Jun-27 19:33N 54°26' E 010°14'3 2.7
2015-Jun-27 18:33N 54°24' E 010°12'4 4.4
2015-Jun-27 17:33N 54°20' E 010°09'1 0.9
2015-Jun-27 16:33N 54°19' E 010°08'0 0.0
2015-Jun-27 15:33N 54°19' E 010°08'1 1.5
2015-Jun-27 14:33N 54°20' E 010°10'5 4.9
2015-Jun-27 13:33N 54°25' E 010°12'4 4.0
2015-Jun-27 12:33N 54°29' E 010°14'1 0.9
2015-Jun-27 11:33N 54°28' E 010°15'3 3.2
2015-Jun-27 10:33N 54°25' E 010°13'4 3.7
2015-Jun-27 09:33N 54°22' E 010°10'2 2.2
2015-Jun-27 08:33N 54°19' E 010°09'1 0.7
2015-Jun-27 07:33N 54°19' E 010°08'0 0.0
2015-Jun-27 06:33N 54°19' E 010°08'0 0.0
2015-Jun-27 05:33N 54°19' E 010°08'0 0.0
2015-Jun-27 04:33N 54°19' E 010°08'0 0.0
2015-Jun-27 03:33N 54°19' E 010°08'0 0.0
2015-Jun-27 02:33N 54°19' E 010°08'0 0.0
2015-Jun-27 01:33N 54°19' E 010°08'0 0.0
2015-Jun-27 00:33N 54°19' E 010°08'0 0.0
2015-Jun-26 23:33N 54°19' E 010°08'0 0.0
2015-Jun-26 22:33N 54°19' E 010°08'0 0.0
2015-Jun-26 21:33N 54°19' E 010°08'0 0.0
2015-Jun-26 20:33N 54°19' E 010°08'0 0.0
2015-Jun-26 19:33N 54°19' E 010°08'0 0.0
2015-Jun-26 18:33N 54°19' E 010°08'0 0.0
2015-Jun-26 17:33N 54°19' E 010°08'0 0.0
2015-Jun-26 16:33N 54°19' E 010°08'0 0.0
2015-Jun-26 15:33N 54°19' E 010°08'0 0.0
2015-Jun-26 14:33N 54°19' E 010°08'0 0.0
2015-Jun-26 13:33N 54°19' E 010°08'0 0.0
2015-Jun-26 12:33N 54°19' E 010°08'0 0.0
2015-Jun-26 11:33N 54°19' E 010°08'0 0.0
2015-Jun-26 10:33N 54°19' E 010°08'0 0.0
2015-Jun-26 09:33N 54°19' E 010°08'0 0.0
2015-Jun-26 08:33N 54°19' E 010°08'0 0.0
2015-Jun-26 07:33N 54°19' E 010°08'0 0.0
2015-Jun-26 06:33N 54°19' E 010°08'0 0.0
2015-Jun-26 05:33N 54°19' E 010°08'0 0.0
2015-Jun-26 04:33N 54°19' E 010°08'0 0.0
2015-Jun-26 03:33N 54°19' E 010°08'0 0.0
2015-Jun-26 02:33N 54°19' E 010°08'0 0.0
2015-Jun-26 01:33N 54°19' E 010°08'0 0.0
2015-Jun-26 00:33N 54°19' E 010°08'0 0.0
2015-Jun-25 23:33N 54°19' E 010°08'0 0.0
2015-Jun-25 22:33N 54°19' E 010°08'0 0.0
2015-Jun-25 21:33N 54°19' E 010°08'0 0.0
2015-Jun-25 20:33N 54°19' E 010°08'0 0.0
2015-Jun-25 19:33N 54°19' E 010°08'0 0.0
2015-Jun-25 18:33N 54°19' E 010°08'0 0.2
2015-Jun-25 17:33N 54°19' E 010°08'3 3.0
2015-Jun-25 16:33N 54°22' E 010°10'2 2.1
2015-Jun-25 15:33N 54°24' E 010°12'2 1.8
2015-Jun-25 14:33N 54°25' E 010°13'1 0.9
2015-Jun-25 13:33N 54°26' E 010°14'3 3.0
2015-Jun-25 12:33N 54°23' E 010°12'3 3.2
2015-Jun-25 11:33N 54°20' E 010°10'2 1.6
2015-Jun-25 10:31N 54°19' E 010°08'0 0.0
2015-Jun-25 09:31N 54°19' E 010°08'0 0.0
2015-Jun-25 08:31N 54°19' E 010°08'0 0.0
2015-Jun-25 07:31N 54°19' E 010°08'0 0.0
2015-Jun-25 06:31N 54°19' E 010°08'0 0.0
2015-Jun-25 05:31N 54°19' E 010°08'0 0.0
2015-Jun-25 04:31N 54°19' E 010°08'0 0.0
2015-Jun-25 03:31N 54°19' E 010°08'0 0.0
2015-Jun-25 02:31N 54°19' E 010°08'0 0.0
2015-Jun-25 01:31N 54°19' E 010°08'0 0.0
2015-Jun-25 00:31N 54°19' E 010°08'0 0.0
2015-Jun-24 23:31N 54°19' E 010°08'0 0.0
2015-Jun-24 22:31N 54°19' E 010°08'0 0.0
2015-Jun-24 21:31N 54°19' E 010°08'0 0.0
2015-Jun-24 20:31N 54°19' E 010°08'0 0.0
2015-Jun-24 19:31N 54°19' E 010°08'0 0.0
2015-Jun-24 18:31N 54°19' E 010°08'0 0.0
2015-Jun-24 17:31N 54°19' E 010°08'0 0.0
2015-Jun-24 16:31N 54°19' E 010°08'0 0.0
2015-Jun-24 15:31N 54°19' E 010°08'1 1.3
2015-Jun-24 14:33N 54°20' E 010°09'4 4.5
2015-Jun-24 13:33N 54°24' E 010°12'1 1.1
2015-Jun-24 12:33N 54°25' E 010°12'0 0.0
2015-Jun-24 11:33N 54°25' E 010°12'0 0.0
2015-Jun-24 10:33N 54°25' E 010°12'2 2.1
2015-Jun-24 09:33N 54°23' E 010°12'4 3.6
2015-Jun-24 08:33N 54°20' E 010°10'1 1.3
2015-Jun-24 07:33N 54°19' E 010°08'0 0.0
2015-Jun-24 06:33N 54°19' E 010°08'0 0.0
2015-Jun-24 05:33N 54°19' E 010°08'0 0.0
2015-Jun-24 04:33N 54°19' E 010°08'0 0.0
2015-Jun-24 03:33N 54°19' E 010°08'0 0.0
2015-Jun-24 02:33N 54°19' E 010°08'0 0.0
2015-Jun-24 01:33N 54°19' E 010°08'0 0.0
2015-Jun-24 00:33N 54°19' E 010°08'0 0.0
2015-Jun-23 23:33N 54°19' E 010°08'0 0.0
2015-Jun-23 22:33N 54°19' E 010°08'0 0.0
2015-Jun-23 21:33N 54°19' E 010°08'0 0.0
2015-Jun-23 20:33N 54°19' E 010°08'0 0.0
2015-Jun-23 19:33N 54°19' E 010°08'0 0.0
2015-Jun-23 19:06N 54°19' E 010°08'0 0.0
2015-Jun-22 19:32N 54°19' E 010°08'0 0.0
2015-Jun-22 18:32N 54°19' E 010°08'0 0.0
2015-Jun-22 17:32N 54°19' E 010°08'0 0.0
2015-Jun-22 16:32N 54°19' E 010°08'0 0.0
2015-Jun-22 15:32N 54°19' E 010°08'0 0.0
2015-Jun-22 14:32N 54°19' E 010°08'0 0.0
2015-Jun-22 13:32N 54°19' E 010°08'0 0.0
2015-Jun-22 12:26N 54°19' E 010°08'0 0.0
2015-Jun-22 11:32N 54°19' E 010°08'  

Dump ship's entire track history